Time;durP1;ratioP1;P1;durP2;ratioP2;P2;SDS_P1;SDS_P2;PMS_P1;PMS_P2;Temp;Humidity;BMP_temperature;BMP_pressure;BME280_temperature;BME280_humidity;BME280_pressure;Samples;Min_cycle;Max_cycle;Signal;HPM_P1;HPM_P2
2022/06/11 00:02:22;;;;;;;13.65;12.85;;;;;;;;;;5038665;28;20033;-63
2022/06/11 00:04:47;;;;;;;16.52;15.60;;;;;;;;;;5037005;28;20017;-63
2022/06/11 00:07:21;;;;;;;13.70;12.90;;;;;;;;;;5035517;28;20052;-63
2022/06/11 00:09:48;;;;;;;9.82;9.13;;;;;;;;;;5031574;28;20118;-63
2022/06/11 00:12:14;;;;;;;14.13;13.25;;;;;;;;;;5037292;28;20357;-63
2022/06/11 00:14:41;;;;;;;15.57;14.68;;;;;;;;;;5036376;28;20119;-63
2022/06/11 00:17:08;;;;;;;17.58;16.60;;;;;;;;;;5035756;28;20039;-63
2022/06/11 00:19:35;;;;;;;18.63;17.52;;;;;;;;;;5033811;28;20033;-63
2022/06/11 00:22:02;;;;;;;19.17;18.08;;;;;;;;;;5034168;28;20122;-63
2022/06/11 00:24:28;;;;;;;17.88;16.88;;;;;;;;;;5037039;28;20021;-63
2022/06/11 00:26:56;;;;;;;18.23;17.20;;;;;;;;;;5037204;28;20073;-63
2022/06/11 00:29:24;;;;;;;20.58;19.40;;;;;;;;;;5031838;28;20033;-63
2022/06/11 00:31:50;;;;;;;21.77;20.40;;;;;;;;;;5034699;28;20032;-63
2022/06/11 00:34:16;;;;;;;18.75;17.67;;;;;;;;;;5037863;28;20076;-64
2022/06/11 00:36:43;;;;;;;18.88;17.83;;;;;;;;;;5035823;28;20533;-63
2022/06/11 00:39:11;;;;;;;17.88;16.88;;;;;;;;;;5039281;28;20362;-63
2022/06/11 00:41:39;;;;;;;17.98;16.98;;;;;;;;;;5036019;28;20040;-63
2022/06/11 00:44:05;;;;;;;16.83;15.85;;;;;;;;;;5031388;28;20098;-63
2022/06/11 00:46:48;;;;;;;18.08;17.08;;;;;;;;;;5033804;28;20110;-63
2022/06/11 00:49:46;;;;;;;18.48;17.42;;;;;;;;;;5037859;28;20351;-64
2022/06/11 00:52:18;;;;;;;13.55;12.75;;;;;;;;;;5034505;28;20056;-63
2022/06/11 00:54:52;;;;;;;16.98;15.88;;;;;;;;;;5034649;28;20044;-63
2022/06/11 00:57:18;;;;;;;15.02;14.13;;;;;;;;;;5035012;28;20120;-62
2022/06/11 00:59:48;;;;;;;14.00;13.05;;;;;;;;;;5040686;28;20574;-62
2022/06/11 01:02:15;;;;;;;14.32;13.52;;;;;;;;;;5033013;28;20239;-62
2022/06/11 01:04:47;;;;;;;11.57;10.88;;;;;;;;;;5035417;28;20414;-62
2022/06/11 01:07:25;;;;;;;12.02;11.32;;;;;;;;;;5032712;28;20029;-62
2022/06/11 01:10:25;;;;;;;12.82;12.02;;;;;;;;;;5035935;28;20034;-62
2022/06/11 01:13:30;;;;;;;13.43;12.63;;;;;;;;;;5033610;28;20108;-62
2022/06/11 01:16:02;;;;;;;12.23;11.52;;;;;;;;;;5015070;28;20119;-62
2022/06/11 01:18:58;;;;;;;15.10;14.20;;;;;;;;;;5035875;28;20025;-62
2022/06/11 01:21:58;;;;;;;15.00;14.10;;;;;;;;;;5030623;28;20033;-62
2022/06/11 01:24:40;;;;;;;17.92;16.88;;;;;;;;;;5034249;28;20063;-62
2022/06/11 01:27:24;;;;;;;20.25;19.05;;;;;;;;;;5032202;28;20064;-62
2022/06/11 01:30:12;;;;;;;19.02;17.98;;;;;;;;;;5034148;28;20041;-62
2022/06/11 01:33:15;;;;;;;17.77;16.77;;;;;;;;;;5038242;28;20417;-62
2022/06/11 01:35:50;;;;;;;15.68;14.75;;;;;;;;;;5035601;28;20034;-62
2022/06/11 01:38:24;;;;;;;16.95;15.95;;;;;;;;;;5033484;28;20048;-62
2022/06/11 01:41:27;;;;;;;16.08;15.18;;;;;;;;;;5036110;28;20025;-62
2022/06/11 01:43:57;;;;;;;18.65;17.38;;;;;;;;;;5034508;28;20041;-62
2022/06/11 01:46:25;;;;;;;;;;;;;;;;;;5037331;28;20527;-62
2022/06/11 01:48:54;;;;;;;15.93;15.00;;;;;;;;;;5033830;28;19915;-62
2022/06/11 01:51:34;;;;;;;11.93;11.23;;;;;;;;;;5034641;28;20095;-62
2022/06/11 01:54:23;;;;;;;12.73;11.93;;;;;;;;;;5037136;28;20040;-62
2022/06/11 01:57:16;;;;;;;13.50;12.57;;;;;;;;;;5031375;28;20040;-62
2022/06/11 02:00:02;;;;;;;11.82;11.13;;;;;;;;;;5034428;28;20044;-62
2022/06/11 02:02:30;;;;;;;14.30;13.40;;;;;;;;;;5033123;28;20033;-62
2022/06/11 02:04:55;;;;;;;13.18;12.38;;;;;;;;;;5038559;28;20035;-61
2022/06/11 02:07:31;;;;;;;14.65;13.85;;;;;;;;;;5033751;28;20383;-62
2022/06/11 02:10:06;;;;;;;14.80;13.90;;;;;;;;;;5034158;28;20067;-61
2022/06/11 02:12:42;;;;;;;13.05;12.25;;;;;;;;;;5030402;28;20032;-61
2022/06/11 02:15:50;;;;;;;15.18;14.27;;;;;;;;;;5031372;28;20037;-61
2022/06/11 02:18:18;;;;;;;14.18;13.27;;;;;;;;;;5026770;28;20439;-61
2022/06/11 02:20:56;;;;;;;13.40;12.60;;;;;;;;;;5035212;28;20026;-61
2022/06/11 02:23:41;;;;;;;15.52;14.63;;;;;;;;;;5035576;28;20034;-62
2022/06/11 02:26:16;;;;;;;15.20;14.30;;;;;;;;;;5033372;28;20037;-62
2022/06/11 02:28:44;;;;;;;15.15;14.27;;;;;;;;;;5034996;28;20033;-61
2022/06/11 02:31:14;;;;;;;18.20;17.13;;;;;;;;;;5031694;28;20426;-62
2022/06/11 02:33:41;;;;;;;19.23;18.13;;;;;;;;;;5032734;28;20087;-62
2022/06/11 02:36:09;;;;;;;18.80;17.75;;;;;;;;;;5031129;28;20116;-62
2022/06/11 02:38:35;;;;;;;23.17;21.85;;;;;;;;;;5035310;28;20048;-61
2022/06/11 02:41:11;;;;;;;26.48;23.08;;;;;;;;;;5035182;28;20475;-62
2022/06/11 02:43:37;;;;;;;23.10;21.85;;;;;;;;;;5034126;28;20454;-62
2022/06/11 02:46:40;;;;;;;32.67;30.90;;;;;;;;;;5031757;28;20051;-62
2022/06/11 02:48:51;;;;;;;31.10;29.45;;;;;;;;;;5035941;28;20071;-61
2022/06/11 02:51:18;;;;;;;44.10;41.85;;;;;;;;;;5030720;28;20648;-62
2022/06/11 02:53:43;;;;;;;35.50;33.65;;;;;;;;;;5033644;28;20108;-61
2022/06/11 02:56:09;;;;;;;44.70;42.42;;;;;;;;;;5036095;28;20120;-61
2022/06/11 02:58:34;;;;;;;33.65;31.50;;;;;;;;;;5030221;28;20068;-61
2022/06/11 03:00:59;;;;;;;38.80;36.80;;;;;;;;;;5035452;28;20463;-61
2022/06/11 03:03:25;;;;;;;29.92;28.33;;;;;;;;;;5032649;28;20037;-61
2022/06/11 03:05:52;;;;;;;37.28;35.38;;;;;;;;;;5033059;28;20579;-61
2022/06/11 03:08:17;;;;;;;34.97;33.17;;;;;;;;;;5033009;28;20035;-61
2022/06/11 03:10:43;;;;;;;34.00;32.17;;;;;;;;;;5032558;28;20026;-61
2022/06/11 03:13:08;;;;;;;40.20;37.92;;;;;;;;;;5030933;28;20037;-61
2022/06/11 03:15:34;;;;;;;32.05;30.38;;;;;;;;;;5029092;28;20033;-61
2022/06/11 03:17:59;;;;;;;35.97;34.10;;;;;;;;;;5032731;28;20034;-61
2022/06/11 03:20:28;;;;;;;37.50;35.47;;;;;;;;;;5030790;28;20094;-61
2022/06/11 03:22:53;;;;;;;30.20;28.63;;;;;;;;;;5033462;28;20039;-61
2022/06/11 03:25:19;;;;;;;35.78;33.92;;;;;;;;;;5033298;28;20570;-61
2022/06/11 03:27:44;;;;;;;33.60;31.80;;;;;;;;;;5032304;28;20029;-61
2022/06/11 03:30:12;;;;;;;37.25;35.30;;;;;;;;;;5038780;28;20069;-61
2022/06/11 03:32:37;;;;;;;33.97;32.20;;;;;;;;;;5036615;28;20059;-61
2022/06/11 03:35:05;;;;;;;32.33;30.58;;;;;;;;;;5038020;28;20561;-61
2022/06/11 03:37:31;;;;;;;31.25;29.65;;;;;;;;;;5037187;28;20462;-61
2022/06/11 03:39:57;;;;;;;31.15;29.55;;;;;;;;;;5035524;28;20041;-61
2022/06/11 03:42:22;;;;;;;16.90;15.90;;;;;;;;;;5037813;28;20034;-61
2022/06/11 03:44:47;;;;;;;24.02;22.63;;;;;;;;;;5037671;28;20025;-61
2022/06/11 03:47:13;;;;;;;28.02;26.52;;;;;;;;;;5033072;28;20566;-61
2022/06/11 03:49:38;;;;;;;30.58;28.98;;;;;;;;;;5036488;28;20495;-62
2022/06/11 03:52:05;;;;;;;32.58;30.90;;;;;;;;;;5033605;28;20340;-61
2022/06/11 03:54:30;;;;;;;33.03;31.30;;;;;;;;;;5033004;28;20025;-61
2022/06/11 03:56:56;;;;;;;36.78;34.85;;;;;;;;;;5032666;28;20033;-62
2022/06/11 03:59:22;;;;;;;36.88;34.95;;;;;;;;;;5035782;28;20099;-61
2022/06/11 04:01:49;;;;;;;39.20;37.17;;;;;;;;;;5033115;28;20112;-61
2022/06/11 04:04:16;;;;;;;36.17;34.28;;;;;;;;;;5035984;28;20025;-61
2022/06/11 04:06:42;;;;;;;38.53;36.42;;;;;;;;;;5034941;28;20437;-62
2022/06/11 04:09:12;;;;;;;39.88;37.78;;;;;;;;;;5035199;28;20101;-62
2022/06/11 04:11:37;;;;;;;32.95;31.25;;;;;;;;;;5034203;28;20386;-61
2022/06/11 04:14:03;;;;;;;27.98;26.48;;;;;;;;;;5034126;28;20040;-61
2022/06/11 04:16:35;;;;;;;30.92;29.23;;;;;;;;;;5031267;28;20496;-62
2022/06/11 04:19:04;;;;;;;31.85;30.13;;;;;;;;;;5034475;28;20045;-62
2022/06/11 04:21:31;;;;;;;29.90;28.33;;;;;;;;;;5033658;28;20021;-62
2022/06/11 04:23:58;;;;;;;28.85;27.35;;;;;;;;;;5034025;28;20111;-61
2022/06/11 04:26:31;;;;;;;31.83;30.13;;;;;;;;;;5036809;28;20048;-61
2022/06/11 04:29:00;;;;;;;35.85;33.92;;;;;;;;;;5034472;28;20025;-62
2022/06/11 04:31:27;;;;;;;26.55;25.13;;;;;;;;;;5036406;28;20026;-61
2022/06/11 04:33:54;;;;;;;25.05;23.70;;;;;;;;;;5036180;28;20064;-62
2022/06/11 04:36:23;;;;;;;32.42;30.73;;;;;;;;;;5036271;28;20459;-62
2022/06/11 04:38:48;;;;;;;19.45;18.35;;;;;;;;;;5034870;28;20061;-62
2022/06/11 04:41:14;;;;;;;22.38;21.15;;;;;;;;;;5032990;28;20060;-62
2022/06/11 04:43:41;;;;;;;15.23;14.32;;;;;;;;;;5036674;28;20053;-62
2022/06/11 04:46:07;;;;;;;19.38;18.27;;;;;;;;;;5032491;28;20037;-62
2022/06/11 04:48:33;;;;;;;16.20;15.30;;;;;;;;;;5033805;28;20458;-62
2022/06/11 04:50:59;;;;;;;21.00;19.73;;;;;;;;;;5031005;28;20092;-62
2022/06/11 04:53:25;;;;;;;19.73;18.63;;;;;;;;;;5035415;28;20695;-62
2022/06/11 04:55:51;;;;;;;19.85;18.75;;;;;;;;;;5036896;28;20126;-62
2022/06/11 04:58:17;;;;;;;20.15;19.02;;;;;;;;;;5032858;28;20056;-62
2022/06/11 05:00:42;;;;;;;24.42;22.75;;;;;;;;;;5032572;28;20072;-62
2022/06/11 05:03:08;;;;;;;19.77;18.67;;;;;;;;;;5033391;28;20045;-62
2022/06/11 05:05:33;;;;;;;18.60;17.50;;;;;;;;;;5033883;28;20041;-62
2022/06/11 05:08:00;;;;;;;19.55;18.45;;;;;;;;;;5033347;28;20055;-62
2022/06/11 05:10:28;;;;;;;20.52;19.40;;;;;;;;;;5037985;28;20056;-62
2022/06/11 05:12:54;;;;;;;22.83;21.60;;;;;;;;;;5033803;28;20034;-62
2022/06/11 05:15:20;;;;;;;25.58;24.17;;;;;;;;;;5033214;28;20119;-62
2022/06/11 05:17:46;;;;;;;19.13;18.02;;;;;;;;;;5030171;28;20028;-62
2022/06/11 05:20:13;;;;;;;20.48;19.38;;;;;;;;;;5033944;28;20045;-62
2022/06/11 05:22:39;;;;;;;21.60;20.40;;;;;;;;;;5033081;28;20047;-62
2022/06/11 05:25:06;;;;;;;23.95;22.65;;;;;;;;;;5033733;28;20108;-62
2022/06/11 05:27:31;;;;;;;25.73;24.33;;;;;;;;;;5036794;28;20033;-62
2022/06/11 05:30:00;;;;;;;21.48;20.27;;;;;;;;;;5032804;28;20025;-62
2022/06/11 05:32:29;;;;;;;20.77;19.58;;;;;;;;;;5032440;28;20088;-62
2022/06/11 05:34:57;;;;;;;20.23;19.13;;;;;;;;;;5027436;28;20120;-62
2022/06/11 05:37:23;;;;;;;25.77;24.38;;;;;;;;;;5029239;28;20052;-62
2022/06/11 05:39:49;;;;;;;22.70;21.45;;;;;;;;;;5033581;28;20030;-62
2022/06/11 05:42:17;;;;;;;24.92;23.52;;;;;;;;;;5034024;28;20044;-62
2022/06/11 05:44:42;;;;;;;23.40;22.10;;;;;;;;;;5033831;28;20034;-62
2022/06/11 05:47:09;;;;;;;24.63;23.33;;;;;;;;;;5030872;28;20090;-62
2022/06/11 05:49:41;;;;;;;21.23;20.08;;;;;;;;;;5030561;28;20552;-63
2022/06/11 05:52:11;;;;;;;20.35;19.25;;;;;;;;;;5026287;28;20123;-64
2022/06/11 05:54:39;;;;;;;21.33;20.20;;;;;;;;;;5032407;28;20036;-64
2022/06/11 05:57:08;;;;;;;22.75;21.55;;;;;;;;;;5030764;28;20287;-64
2022/06/11 05:59:38;;;;;;;24.65;23.35;;;;;;;;;;5028866;28;20059;-64
2022/06/11 06:02:08;;;;;;;18.70;17.65;;;;;;;;;;5031639;28;20469;-64
2022/06/11 06:04:34;;;;;;;20.20;19.10;;;;;;;;;;5030385;28;20091;-64
2022/06/11 06:07:00;;;;;;;13.73;12.93;;;;;;;;;;5030837;28;20666;-64
2022/06/11 06:09:25;;;;;;;18.10;16.98;;;;;;;;;;5032492;28;20175;-64
2022/06/11 06:11:50;;;;;;;15.65;14.75;;;;;;;;;;5033626;28;20024;-64
2022/06/11 06:14:16;;;;;;;16.77;15.77;;;;;;;;;;5031205;28;20094;-64
2022/06/11 06:16:41;;;;;;;11.27;10.57;;;;;;;;;;5030895;28;20033;-63
2022/06/11 06:19:06;;;;;;;18.83;17.83;;;;;;;;;;5031846;28;20459;-62
2022/06/11 06:21:34;;;;;;;23.77;22.48;;;;;;;;;;5029224;28;20093;-63
2022/06/11 06:24:00;;;;;;;17.67;16.50;;;;;;;;;;5030131;28;20124;-63
2022/06/11 06:26:25;;;;;;;26.00;24.60;;;;;;;;;;5032477;28;20375;-63
2022/06/11 06:28:51;;;;;;;24.02;22.73;;;;;;;;;;5037744;28;20468;-63
2022/06/11 06:31:17;;;;;;;25.38;24.00;;;;;;;;;;5029927;28;20051;-63
2022/06/11 06:33:43;;;;;;;22.88;21.67;;;;;;;;;;5031088;28;20064;-63
2022/06/11 06:36:09;;;;;;;18.80;17.77;;;;;;;;;;5030576;28;20037;-62
2022/06/11 06:38:37;;;;;;;36.63;34.67;;;;;;;;;;5033256;28;20036;-62
2022/06/11 06:41:03;;;;;;;23.33;22.02;;;;;;;;;;5032774;28;20937;-63
2022/06/11 06:43:28;;;;;;;16.90;15.90;;;;;;;;;;5031925;28;20033;-62
2022/06/11 06:45:54;;;;;;;30.00;28.40;;;;;;;;;;5032643;28;20471;-63
2022/06/11 06:48:19;;;;;;;22.25;21.05;;;;;;;;;;5029090;28;20029;-63
2022/06/11 06:50:45;;;;;;;27.00;25.60;;;;;;;;;;5029518;28;20618;-64
2022/06/11 06:53:11;;;;;;;30.40;28.80;;;;;;;;;;5029996;28;20052;-64
2022/06/11 06:55:36;;;;;;;34.47;32.58;;;;;;;;;;5024171;28;20037;-63
2022/06/11 06:58:02;;;;;;;27.73;26.00;;;;;;;;;;5030211;28;20044;-63
2022/06/11 07:00:28;;;;;;;29.67;28.13;;;;;;;;;;5030140;28;20455;-62
2022/06/11 07:02:53;;;;;;;35.97;33.97;;;;;;;;;;5027125;28;20128;-64
2022/06/11 07:05:19;;;;;;;40.08;38.05;;;;;;;;;;5030809;28;20028;-61
2022/06/11 07:07:47;;;;;;;41.95;39.65;;;;;;;;;;5031015;28;20414;-63
2022/06/11 07:10:13;;;;;;;28.20;26.70;;;;;;;;;;5030317;28;20411;-63
2022/06/11 07:12:38;;;;;;;34.15;32.38;;;;;;;;;;5028747;28;20032;-63
2022/06/11 07:15:04;;;;;;;32.95;31.15;;;;;;;;;;5032159;28;20037;-62
2022/06/11 07:17:36;;;;;;;37.65;35.60;;;;;;;;;;5033859;28;20044;-64
2022/06/11 07:20:10;;;;;;;20.38;19.27;;;;;;;;;;5029325;28;20029;-64
2022/06/11 07:22:41;;;;;;;23.83;22.48;;;;;;;;;;5028643;28;20044;-64
2022/06/11 07:25:09;;;;;;;34.38;32.58;;;;;;;;;;5030159;28;20571;-64
2022/06/11 07:27:40;;;;;;;36.95;35.05;;;;;;;;;;5030801;28;20033;-64
2022/06/11 07:30:15;;;;;;;35.03;33.17;;;;;;;;;;5031155;28;20090;-64
2022/06/11 07:32:44;;;;;;;23.65;22.38;;;;;;;;;;5031180;28;20037;-63
2022/06/11 07:35:13;;;;;;;20.45;19.25;;;;;;;;;;5035296;28;20040;-64
2022/06/11 07:37:40;;;;;;;39.47;37.33;;;;;;;;;;5031076;28;20488;-65
2022/06/11 07:40:07;;;;;;;46.13;43.80;;;;;;;;;;5028617;28;20418;-64
2022/06/11 07:42:33;;;;;;;113.60;107.95;;;;;;;;;;5031186;28;20037;-63
2022/06/11 07:44:58;;;;;;;44.13;41.88;;;;;;;;;;5031468;28;20073;-64
2022/06/11 07:50:11;;;;;;;34.72;32.92;;;;;;;;;;5030591;28;20113;-64
2022/06/11 07:52:38;;;;;;;136.52;129.68;;;;;;;;;;5028608;28;20175;-64
2022/06/11 07:55:05;;;;;;;107.88;102.53;;;;;;;;;;5030285;28;20033;-65
2022/06/11 07:57:30;;;;;;;63.63;60.38;;;;;;;;;;5030987;28;20120;-65
2022/06/11 07:59:56;;;;;;;67.13;63.35;;;;;;;;;;5032752;28;20166;-64
2022/06/11 08:02:21;;;;;;;185.55;176.45;;;;;;;;;;5029215;28;20120;-64
2022/06/11 08:04:46;;;;;;;145.25;138.13;;;;;;;;;;5030828;28;20025;-62
2022/06/11 08:07:12;;;;;;;170.70;162.32;;;;;;;;;;5027424;28;20532;-63
2022/06/11 08:09:37;;;;;;;132.13;125.57;;;;;;;;;;5031463;28;20503;-63
2022/06/11 08:12:03;;;;;;;196.93;187.25;;;;;;;;;;5030197;28;20033;-63
2022/06/11 08:14:28;;;;;;;140.00;133.00;;;;;;;;;;5033903;28;20474;-64
2022/06/11 08:16:54;;;;;;;177.15;168.48;;;;;;;;;;5035968;28;20036;-65
2022/06/11 08:19:19;;;;;;;157.18;149.43;;;;;;;;;;5031569;28;20038;-64
2022/06/11 08:21:44;;;;;;;81.13;77.10;;;;;;;;;;5033617;28;20115;-65
2022/06/11 08:24:10;;;;;;;108.22;102.70;;;;;;;;;;5036437;28;20047;-65
2022/06/11 08:26:35;;;;;;;170.93;162.55;;;;;;;;;;5036320;28;20025;-65
2022/06/11 08:29:01;;;;;;;234.35;222.98;;;;;;;;;;5037432;28;20068;-65
2022/06/11 08:31:26;;;;;;;214.43;204.00;;;;;;;;;;5036828;28;20037;-65
2022/06/11 08:33:52;;;;;;;106.47;101.22;;;;;;;;;;5035873;28;20029;-65
2022/06/11 08:36:17;;;;;;;108.53;103.18;;;;;;;;;;5032523;28;20040;-65
2022/06/11 08:38:43;;;;;;;115.93;110.03;;;;;;;;;;5035978;28;20025;-66
2022/06/11 08:41:15;;;;;;;103.03;97.95;;;;;;;;;;5032777;28;20114;-63
2022/06/11 08:43:43;;;;;;;98.15;93.32;;;;;;;;;;5035708;28;20039;-64
2022/06/11 08:46:11;;;;;;;90.50;86.05;;;;;;;;;;5034245;28;20265;-63
2022/06/11 08:48:50;;;;;;;108.95;103.57;;;;;;;;;;5034353;28;20033;-64
2022/06/11 08:51:32;;;;;;;91.50;86.93;;;;;;;;;;5031396;28;20045;-63
2022/06/11 08:54:01;;;;;;;142.68;135.65;;;;;;;;;;5035545;28;20086;-66
2022/06/11 08:56:27;;;;;;;125.65;119.47;;;;;;;;;;5033159;28;20478;-64
2022/06/11 08:59:07;;;;;;;157.73;150.00;;;;;;;;;;5035611;28;20037;-64
2022/06/11 09:01:47;;;;;;;119.63;113.75;;;;;;;;;;5034475;28;20041;-65
2022/06/11 09:04:28;;;;;;;72.78;69.13;;;;;;;;;;5032420;28;20044;-65
2022/06/11 09:07:06;;;;;;;94.75;90.00;;;;;;;;;;5039095;28;20099;-65
2022/06/11 09:09:40;;;;;;;75.00;70.88;;;;;;;;;;5036831;28;20329;-64
2022/06/11 09:12:20;;;;;;;79.35;75.43;;;;;;;;;;5036242;28;20067;-63
2022/06/11 09:15:15;;;;;;;88.40;83.97;;;;;;;;;;5034908;28;20093;-65
2022/06/11 09:18:11;;;;;;;150.07;142.68;;;;;;;;;;5034068;28;20053;-64
2022/06/11 09:21:00;;;;;;;125.43;119.25;;;;;;;;;;5032818;28;20029;-65
2022/06/11 09:23:36;;;;;;;78.75;74.85;;;;;;;;;;5025762;28;20060;-66
2022/06/11 09:26:22;;;;;;;187.40;178.23;;;;;;;;;;5032381;28;20034;-66
2022/06/11 09:29:04;;;;;;;131.35;124.78;;;;;;;;;;5033678;28;20069;-64
2022/06/11 09:31:45;;;;;;;72.63;68.90;;;;;;;;;;5034309;28;20500;-63
2022/06/11 09:34:18;;;;;;;125.22;119.07;;;;;;;;;;5032293;28;20091;-65
2022/06/11 09:36:56;;;;;;;125.93;119.70;;;;;;;;;;5031476;28;20056;-64
2022/06/11 09:39:34;;;;;;;106.15;100.90;;;;;;;;;;5034252;28;20110;-63
2022/06/11 09:42:15;;;;;;;133.80;127.15;;;;;;;;;;5033507;28;20029;-63
2022/06/11 09:45:04;;;;;;;135.80;129.07;;;;;;;;;;5028294;28;20467;-63
2022/06/11 09:47:40;;;;;;;164.73;156.63;;;;;;;;;;5031936;28;20056;-63
2022/06/11 09:50:28;;;;;;;70.45;66.93;;;;;;;;;;5031725;28;20116;-62
2022/06/11 09:53:27;;;;;;;117.15;111.32;;;;;;;;;;5029444;28;20049;-61
2022/06/11 09:56:37;;;;;;;169.75;161.30;;;;;;;;;;5033142;28;20463;-63
2022/06/11 09:59:15;;;;;;;216.93;206.18;;;;;;;;;;5034619;28;20068;-62
2022/06/11 10:05:13;;;;;;;102.63;97.53;;;;;;;;;;4985232;28;20049;-62
2022/06/11 10:07:44;;;;;;;144.25;136.95;;;;;;;;;;5030680;28;20087;-62
2022/06/11 10:10:26;;;;;;;119.18;113.13;;;;;;;;;;5034358;28;20056;-61
2022/06/11 10:13:12;;;;;;;265.75;252.60;;;;;;;;;;5037319;28;20107;-61
2022/06/11 10:15:39;;;;;;;306.83;291.45;;;;;;;;;;5035089;28;20529;-61
2022/06/11 10:18:10;;;;;;;284.70;270.52;;;;;;;;;;5031438;28;20475;-62
2022/06/11 10:20:42;;;;;;;122.38;116.35;;;;;;;;;;5033601;28;20139;-62
2022/06/11 10:23:16;;;;;;;106.05;100.82;;;;;;;;;;5030208;28;20481;-63
2022/06/11 10:25:56;;;;;;;349.98;332.42;;;;;;;;;;5034318;28;20083;-63
2022/06/11 10:28:43;;;;;;;348.20;330.50;;;;;;;;;;5034665;28;20034;-63
2022/06/11 10:31:20;;;;;;;114.28;108.65;;;;;;;;;;5036810;28;20081;-63
2022/06/11 10:33:55;;;;;;;154.30;146.70;;;;;;;;;;5033157;28;20037;-62
2022/06/11 10:36:22;;;;;;;96.82;91.97;;;;;;;;;;5033344;28;20057;-62
2022/06/11 10:39:11;;;;;;;92.63;88.03;;;;;;;;;;5034097;28;20039;-61
2022/06/11 10:41:48;;;;;;;93.68;89.07;;;;;;;;;;5033270;28;20063;-63
2022/06/11 10:44:24;;;;;;;112.43;106.88;;;;;;;;;;5032952;28;20109;-63
2022/06/11 10:46:50;;;;;;;103.45;98.38;;;;;;;;;;5037404;28;20036;-63
2022/06/11 10:49:18;;;;;;;87.63;83.28;;;;;;;;;;5030788;28;20367;-62
2022/06/11 10:51:55;;;;;;;99.38;94.47;;;;;;;;;;5032331;28;20064;-62
2022/06/11 10:54:24;;;;;;;108.18;102.82;;;;;;;;;;5034655;28;20038;-63
2022/06/11 10:56:56;;;;;;;66.75;63.45;;;;;;;;;;5034727;28;20511;-63
2022/06/11 10:59:42;;;;;;;54.95;52.17;;;;;;;;;;5033878;28;20029;-63
2022/06/11 11:02:26;;;;;;;117.18;111.43;;;;;;;;;;5033831;28;20048;-63
2022/06/11 11:05:08;;;;;;;108.20;102.90;;;;;;;;;;5020218;28;20395;-62
2022/06/11 11:07:56;;;;;;;63.47;60.28;;;;;;;;;;5032905;28;20109;-62
2022/06/11 11:10:49;;;;;;;67.47;64.07;;;;;;;;;;5030807;28;20032;-62
2022/06/11 11:13:39;;;;;;;105.03;99.75;;;;;;;;;;5031547;28;20052;-63
2022/06/11 11:16:26;;;;;;;;;;;;;;;;;;5032515;28;20030;-63
2022/06/11 11:19:05;;;;;;;83.18;79.07;;;;;;;;;;5031982;28;19913;-62
2022/06/11 11:21:56;;;;;;;132.30;125.78;;;;;;;;;;5031851;28;20112;-62
2022/06/11 11:24:29;;;;;;;134.23;127.63;;;;;;;;;;5032914;28;20105;-62
2022/06/11 11:27:01;;;;;;;153.18;145.57;;;;;;;;;;5031833;28;20036;-64
2022/06/11 11:29:35;;;;;;;163.07;155.02;;;;;;;;;;5029996;28;20116;-62
2022/06/11 11:32:07;;;;;;;98.18;93.32;;;;;;;;;;5034319;28;20111;-62
2022/06/11 11:34:41;;;;;;;143.43;136.38;;;;;;;;;;5032228;28;20025;-61
2022/06/11 11:37:13;;;;;;;183.25;174.25;;;;;;;;;;5030046;28;20028;-63
2022/06/11 11:39:47;;;;;;;176.68;167.98;;;;;;;;;;5030387;28;20043;-63
2022/06/11 11:42:17;;;;;;;174.00;165.40;;;;;;;;;;5031837;28;20030;-62
2022/06/11 11:44:49;;;;;;;154.63;147.00;;;;;;;;;;5029183;28;20415;-63
2022/06/11 11:47:35;;;;;;;113.55;107.90;;;;;;;;;;5031742;28;20064;-63
2022/06/11 11:50:17;;;;;;;175.93;167.23;;;;;;;;;;5035509;28;20033;-63
2022/06/11 11:53:02;;;;;;;158.40;150.68;;;;;;;;;;5036683;28;20337;-62
2022/06/11 11:55:30;;;;;;;96.07;91.35;;;;;;;;;;5037033;28;20112;-61
2022/06/11 11:58:00;;;;;;;88.18;83.85;;;;;;;;;;5037563;28;20045;-62
2022/06/11 12:00:30;;;;;;;89.80;85.40;;;;;;;;;;5031323;28;20042;-61
2022/06/11 12:03:10;;;;;;;97.20;92.32;;;;;;;;;;5038091;28;20029;-61
2022/06/11 12:05:38;;;;;;;;;;;;;;;;;;5038376;28;20786;-63
2022/06/11 12:08:12;;;;;;;170.93;162.32;;;;;;;;;;5036507;28;20003;-63
2022/06/11 12:10:45;;;;;;;82.68;78.47;;;;;;;;;;5034627;28;20024;-63
2022/06/11 12:13:32;;;;;;;77.15;73.35;;;;;;;;;;5035822;28;20029;-63
2022/06/11 12:16:04;;;;;;;84.30;80.13;;;;;;;;;;5034784;28;20446;-64
2022/06/11 12:18:42;;;;;;;87.68;83.35;;;;;;;;;;5035319;28;20037;-64
2022/06/11 12:21:13;;;;;;;88.38;83.88;;;;;;;;;;5031587;28;20038;-63
2022/06/11 12:24:08;;;;;;;128.70;122.35;;;;;;;;;;5037072;28;20056;-63
2022/06/11 12:26:51;;;;;;;78.15;74.28;;;;;;;;;;5034038;28;20418;-63
2022/06/11 12:29:37;;;;;;;89.97;85.53;;;;;;;;;;5035373;28;20033;-63
2022/06/11 12:32:30;;;;;;;151.18;143.73;;;;;;;;;;5032892;28;20037;-63
2022/06/11 12:34:59;;;;;;;138.88;131.55;;;;;;;;;;5033793;28;20041;-64
2022/06/11 12:37:40;;;;;;;84.00;79.82;;;;;;;;;;5035961;28;20176;-64
2022/06/11 12:40:26;;;;;;;80.32;76.35;;;;;;;;;;5034118;28;20036;-64
2022/06/11 12:43:13;;;;;;;74.57;70.90;;;;;;;;;;5032593;28;20098;-64
2022/06/11 12:45:48;;;;;;;82.10;78.03;;;;;;;;;;5030093;28;20044;-62
2022/06/11 12:48:17;;;;;;;84.13;79.97;;;;;;;;;;5035203;28;20029;-63
2022/06/11 12:51:03;;;;;;;82.45;78.35;;;;;;;;;;5035549;28;20032;-63
2022/06/11 12:53:53;;;;;;;82.80;78.70;;;;;;;;;;5031659;28;20407;-63
2022/06/11 12:57:02;;;;;;;82.90;78.80;;;;;;;;;;5034770;28;20049;-64
2022/06/11 12:59:40;;;;;;;80.45;76.45;;;;;;;;;;5032154;28;20068;-63
2022/06/11 13:02:29;;;;;;;79.45;75.53;;;;;;;;;;5037651;28;20496;-63
2022/06/11 13:05:18;;;;;;;74.93;71.25;;;;;;;;;;5034726;28;20045;-64
2022/06/11 13:07:51;;;;;;;75.32;71.50;;;;;;;;;;5032803;28;20021;-63
2022/06/11 13:10:31;;;;;;;86.65;82.38;;;;;;;;;;5033835;28;20497;-63
2022/06/11 13:13:03;;;;;;;;;;;;;;;;;;5035177;28;20033;-63
2022/06/11 13:15:57;;;;;;;102.78;97.70;;;;;;;;;;5032143;28;19964;-63
2022/06/11 13:18:46;;;;;;;84.13;79.97;;;;;;;;;;5037106;28;20048;-63
2022/06/11 13:21:39;;;;;;;82.40;78.30;;;;;;;;;;5033127;28;20107;-63
2022/06/11 13:24:21;;;;;;;81.88;77.82;;;;;;;;;;5032375;28;20111;-62
2022/06/11 13:27:00;;;;;;;74.35;70.68;;;;;;;;;;5036315;28;20037;-61
2022/06/11 13:30:02;;;;;;;79.00;75.10;;;;;;;;;;5035029;28;20033;-62
2022/06/11 13:32:59;;;;;;;75.22;71.50;;;;;;;;;;5014953;28;20053;-64
2022/06/11 13:36:13;;;;;;;78.82;74.93;;;;;;;;;;5030985;28;20033;-63
2022/06/11 13:39:03;;;;;;;79.70;75.78;;;;;;;;;;4994742;28;20644;-64
2022/06/11 13:41:53;;;;;;;77.32;73.50;;;;;;;;;;4993873;28;20389;-63
2022/06/11 13:44:30;;;;;;;85.88;81.00;;;;;;;;;;5024682;28;20107;-65
2022/06/11 13:47:31;;;;;;;93.65;89.05;;;;;;;;;;5032689;28;20124;-64
2022/06/11 13:50:23;;;;;;;102.15;97.13;;;;;;;;;;4975723;28;20520;-64
2022/06/11 13:55:48;;;;;;;97.03;92.22;;;;;;;;;;5032536;28;20031;-64
2022/06/11 13:58:45;;;;;;;80.32;76.05;;;;;;;;;;5033108;28;20037;-64
2022/06/11 14:01:36;;;;;;;79.53;75.53;;;;;;;;;;5016821;28;20118;-64
2022/06/11 14:04:24;;;;;;;102.10;96.85;;;;;;;;;;5032375;28;20033;-63
2022/06/11 14:06:50;;;;;;;79.68;75.70;;;;;;;;;;5031974;28;20041;-64
2022/06/11 14:11:59;;;;;;;87.68;83.30;;;;;;;;;;5030084;28;20041;-63
2022/06/11 14:14:40;;;;;;;92.22;87.70;;;;;;;;;;5032210;28;20125;-62
2022/06/11 14:17:43;;;;;;;60.72;57.70;;;;;;;;;;5028589;28;20034;-62
2022/06/11 14:20:25;;;;;;;66.10;62.80;;;;;;;;;;5029178;28;20031;-62
2022/06/11 14:23:14;;;;;;;56.33;53.50;;;;;;;;;;5032689;28;20053;-63
2022/06/11 14:25:46;;;;;;;53.42;50.72;;;;;;;;;;5017410;28;20473;-63
2022/06/11 14:28:14;;;;;;;58.58;55.67;;;;;;;;;;5034620;28;20033;-63
2022/06/11 14:30:45;;;;;;;69.00;65.60;;;;;;;;;;5029631;28;20050;-63
2022/06/11 14:33:11;;;;;;;83.22;79.13;;;;;;;;;;5033851;28;20033;-63
2022/06/11 14:35:54;;;;;;;72.60;68.97;;;;;;;;;;5033854;28;20040;-63
2022/06/11 14:38:38;;;;;;;92.55;88.00;;;;;;;;;;5033683;28;20045;-64
2022/06/11 14:41:09;;;;;;;77.55;73.75;;;;;;;;;;5031161;28;20025;-63
2022/06/11 14:43:53;;;;;;;91.40;86.90;;;;;;;;;;5034173;28;20087;-62
2022/06/11 14:46:30;;;;;;;91.68;87.18;;;;;;;;;;5033918;28;20356;-62
2022/06/11 14:48:58;;;;;;;88.45;84.10;;;;;;;;;;5032757;28;20033;-62
2022/06/11 14:51:25;;;;;;;93.78;89.18;;;;;;;;;;5030935;28;20458;-63
2022/06/11 14:54:03;;;;;;;79.72;75.80;;;;;;;;;;5029054;28;20033;-63
2022/06/11 14:56:53;;;;;;;91.80;87.30;;;;;;;;;;5031242;28;20475;-62
2022/06/11 14:59:35;;;;;;;;;;;;;;;;;;5031030;28;20033;-62
2022/06/11 15:02:22;;;;;;;98.03;93.22;;;;;;;;;;5030077;28;20711;-62
2022/06/11 15:05:16;;;;;;;99.82;94.93;;;;;;;;;;5016244;28;20026;-61